Kiowa, Kansas
Current Conditions -  °F | °C
As of 10:30 AM on Saturday 22 Nov 2014 (Local Time) from KAVK Reporting Station
Moderate Fog Moderate Fog  
Wind Chill: 42°   Ceiling: 200
Heat Index: 45°   Visibility: 0.5mi
Dew Point: 45°   Wind: 5mph
Humidity: 100%   Direction: 170°S
Pressure: 29.94"   Gusts: NA
Location:  37.02°N, 98.49°W
Report Text: KAVK 221630Z AUTO 17004KT 1/2SM FG OVC002 07/07 A2994 RMK AO2 LTG DSNT S
Loading
Personal Weather Stations






























Interactive Weather Map New forecast layout! Learn more

10-Day Weather Forecast

Advertisements
Track Severe Weather on mobile